createdAt,value
2019-03-29T07:17:17.721Z,20.12
2019-03-29T07:19:45.901Z,19.77
2019-03-29T07:22:14.203Z,19.73
2019-03-29T07:24:42.403Z,21.42
2019-03-29T07:27:10.617Z,20.83
2019-03-29T07:29:38.868Z,18.77
2019-03-29T07:32:07.134Z,18.12
2019-03-29T07:34:35.387Z,17.25
2019-03-29T07:37:05.881Z,16.55
2019-03-29T07:39:31.814Z,17.45
2019-03-29T07:42:00.006Z,18.35
2019-03-29T07:44:28.196Z,18.50
2019-03-29T07:46:56.474Z,16.50
2019-03-29T07:49:24.693Z,17.03
2019-03-29T07:51:52.901Z,17.60
2019-03-29T07:54:21.138Z,15.90
2019-03-29T07:56:49.355Z,14.98
2019-03-29T07:59:17.619Z,14.82
2019-03-29T08:01:45.828Z,13.77
2019-03-29T08:04:14.051Z,13.05
2019-03-29T08:06:42.310Z,12.05
2019-03-29T08:09:21.770Z,14.50
2019-03-29T08:11:46.307Z,13.45
2019-03-29T08:14:07.021Z,13.73
2019-03-29T08:16:35.300Z,11.90
2019-03-29T08:19:03.525Z,8.52
2019-03-29T08:21:31.769Z,10.27
2019-03-29T08:23:59.987Z,8.43
2019-03-29T08:26:28.355Z,9.23
2019-03-29T08:28:56.465Z,8.55
2019-03-29T08:31:24.697Z,5.82
2019-03-29T08:33:52.905Z,5.37
2019-03-29T08:36:21.095Z,5.00
2019-03-29T08:38:49.440Z,4.15
2019-03-29T08:41:17.654Z,4.20
2019-03-29T08:43:45.852Z,3.60
2019-03-29T08:46:14.111Z,4.00
2019-03-29T08:48:42.304Z,4.07
2019-03-29T08:51:10.524Z,4.70
2019-03-29T08:53:38.754Z,3.50
2019-03-29T08:56:06.994Z,3.35
2019-03-29T08:58:35.209Z,3.62
2019-03-29T09:01:03.476Z,2.87
2019-03-29T09:03:31.663Z,2.77
2019-03-29T09:05:59.920Z,2.50
2019-03-29T09:08:28.174Z,2.20
2019-03-29T09:10:56.407Z,3.10
2019-03-29T09:13:24.638Z,2.87
2019-03-29T09:15:52.891Z,2.50
2019-03-29T09:18:21.135Z,2.62
2019-03-29T09:20:49.401Z,2.62
2019-03-29T09:23:17.657Z,3.67
2019-03-29T09:25:45.838Z,3.30
2019-03-29T09:28:14.055Z,2.92
2019-03-29T09:30:42.343Z,2.30
2019-03-29T09:33:10.558Z,2.30
2019-03-29T09:35:38.801Z,2.40
2019-03-29T09:38:07.013Z,2.62
2019-03-29T09:40:35.239Z,2.92
2019-03-29T09:43:07.817Z,3.10
2019-03-29T09:45:31.690Z,2.65
2019-03-29T09:47:59.946Z,2.45
2019-03-29T09:50:28.197Z,2.70
2019-03-29T09:52:56.489Z,2.40
2019-03-29T09:55:24.681Z,2.30
2019-03-29T09:57:52.935Z,2.28
2019-03-29T10:00:23.547Z,2.17
2019-03-29T10:02:49.513Z,2.20
2019-03-29T10:05:20.072Z,1.95
2019-03-29T10:07:45.937Z,2.70
2019-03-29T10:10:14.264Z,2.50
2019-03-29T10:12:44.006Z,2.37
2019-03-29T10:15:10.660Z,2.80
2019-03-29T10:17:38.849Z,2.30
2019-03-29T10:20:07.082Z,2.72
2019-03-29T10:22:35.322Z,2.03
2019-03-29T10:25:17.982Z,2.10
2019-03-29T10:27:31.795Z,2.37
2019-03-29T10:30:00.093Z,2.45
2019-03-29T10:32:28.294Z,2.30
2019-03-29T10:34:56.501Z,2.08
2019-03-29T10:37:24.790Z,2.30
2019-03-29T13:12:10.489Z,4.28
2019-03-29T13:14:38.745Z,4.10
2019-03-29T13:17:06.981Z,5.18
2019-03-29T13:19:35.211Z,4.28
2019-03-29T13:22:03.393Z,4.62
2019-03-29T13:24:31.599Z,5.40
2019-03-29T13:26:59.841Z,4.20
2019-03-29T13:29:28.076Z,5.25
2019-03-29T13:31:56.294Z,5.47
2019-03-29T13:34:24.557Z,5.03
2019-03-29T13:36:52.737Z,5.03
2019-03-29T13:39:20.958Z,5.25
2019-03-29T13:41:49.204Z,6.07
2019-03-29T13:44:23.704Z,5.20
2019-03-29T13:46:45.609Z,5.12
2019-03-29T13:49:13.886Z,5.00
2019-03-29T13:51:42.065Z,5.50
2019-03-29T13:54:10.295Z,4.97
2019-03-29T13:56:38.564Z,6.62
2019-03-29T13:59:06.742Z,6.60
2019-03-29T14:01:34.961Z,6.10
2019-03-29T14:04:03.203Z,6.05
2019-03-29T14:06:31.399Z,5.70
2019-03-29T14:08:59.654Z,5.97
2019-03-29T14:11:27.915Z,6.00
2019-03-29T14:13:56.126Z,6.10
2019-03-29T14:16:24.339Z,6.60
2019-03-29T14:18:52.552Z,6.87
2019-03-29T14:21:20.783Z,6.75
2019-03-29T14:23:48.987Z,6.75
2019-03-29T14:26:17.208Z,6.28
2019-03-29T14:28:45.435Z,6.53
2019-03-29T14:31:13.687Z,6.15
2019-03-29T14:33:41.911Z,6.70
2019-03-29T14:36:10.125Z,6.17
2019-03-29T14:38:38.332Z,6.10
2019-03-29T14:41:06.580Z,6.90
2019-03-29T14:43:34.882Z,6.20
2019-03-29T14:46:02.999Z,5.75
2019-03-29T14:48:31.242Z,6.40
2019-03-29T14:50:59.496Z,6.53
2019-03-29T14:53:27.745Z,5.82
2019-03-29T14:55:55.966Z,6.40
2019-03-29T14:58:24.193Z,6.57
2019-03-29T15:00:52.443Z,6.45
2019-03-29T15:03:20.676Z,6.78
2019-03-29T15:05:48.871Z,6.62
2019-03-29T15:08:17.089Z,6.22
2019-03-29T15:10:45.961Z,5.78
2019-03-29T15:13:13.528Z,6.30
2019-03-29T15:15:41.723Z,6.32
2019-03-29T15:18:10.023Z,6.68
2019-03-29T15:20:52.122Z,6.70
2019-03-29T15:23:06.479Z,5.72
2019-03-29T15:25:34.740Z,6.68
2019-03-29T15:28:02.980Z,7.62
2019-03-29T15:30:31.181Z,6.87
2019-03-29T15:32:59.404Z,7.30
2019-03-29T15:35:27.653Z,8.00
2019-03-29T15:37:55.858Z,7.30
2019-03-29T15:40:24.156Z,6.85
2019-03-29T15:42:52.365Z,7.47
2019-03-29T15:45:21.178Z,6.18
2019-03-29T15:47:49.304Z,6.40
2019-03-29T15:50:17.539Z,6.15
2019-03-29T15:52:45.781Z,6.83
2019-03-29T15:55:14.001Z,6.93
2019-03-29T15:57:42.183Z,7.40
2019-03-29T16:00:10.395Z,7.43
2019-03-29T16:02:38.642Z,7.70
2019-03-29T16:05:06.820Z,7.50
2019-03-29T16:07:35.174Z,8.25
2019-03-29T16:10:03.341Z,7.72
2019-03-29T16:12:31.538Z,7.78
2019-03-29T16:14:59.724Z,8.10
2019-03-29T16:17:28.012Z,6.47
2019-03-29T16:19:56.264Z,7.32
2019-03-29T16:22:24.442Z,8.18
2019-03-29T16:24:52.708Z,8.60
2019-03-29T16:27:20.909Z,8.60
2019-03-29T16:29:49.161Z,8.73
2019-03-29T16:32:17.392Z,8.10
2019-03-29T16:34:45.616Z,6.97
2019-03-29T16:37:13.851Z,7.72
2019-03-29T16:39:42.102Z,6.95
2019-03-29T16:42:10.351Z,7.62
2019-03-29T16:44:38.532Z,7.47
2019-03-29T16:47:07.267Z,7.95
2019-03-29T16:49:35.501Z,7.60
2019-03-29T16:52:03.681Z,7.80
2019-03-29T16:54:31.923Z,6.45
2019-03-29T16:57:00.102Z,7.53
2019-03-29T16:59:28.339Z,7.43
2019-03-29T17:01:56.595Z,7.28
